Time;durP1;ratioP1;P1;durP2;ratioP2;P2;SDS_P1;SDS_P2;PMS_P1;PMS_P2;Temp;Humidity;BMP_temperature;BMP_pressure;BME280_temperature;BME280_humidity;BME280_pressure;Samples;Min_cycle;Max_cycle;Signal;HPM_P1;HPM_P2
2024/02/01 00:02:09;;;;;;;50.78;24.48;;;;;;;;;;4912931;29;20087;-68
2024/02/01 00:04:36;;;;;;;47.75;24.02;;;;;;;;;;4912605;29;20527;-68
2024/02/01 00:07:02;;;;;;;48.90;23.75;;;;;;;;;;4912643;29;20090;-68
2024/02/01 00:09:31;;;;;;;56.75;21.63;;;;;;;;;;4897099;29;20052;-68
2024/02/01 00:11:58;;;;;;;35.92;17.80;;;;;;;;;;4912487;29;20507;-69
2024/02/01 00:14:25;;;;;;;52.15;24.38;;;;;;;;;;4912599;29;20036;-69
2024/02/01 00:16:51;;;;;;;52.20;22.75;;;;;;;;;;4913354;29;20590;-69
2024/02/01 00:19:17;;;;;;;61.25;24.75;;;;;;;;;;4912604;29;20119;-68
2024/02/01 00:21:43;;;;;;;55.97;23.20;;;;;;;;;;4913487;29;20131;-70
2024/02/01 00:24:09;;;;;;;65.97;28.08;;;;;;;;;;4865828;29;20048;-69
2024/02/01 00:26:36;;;;;;;69.75;30.00;;;;;;;;;;4913868;29;20040;-67
2024/02/01 00:29:01;;;;;;;60.08;26.88;;;;;;;;;;4914155;29;20091;-68
2024/02/01 00:31:27;;;;;;;69.35;27.55;;;;;;;;;;4913148;29;20505;-67
2024/02/01 00:33:53;;;;;;;70.60;28.42;;;;;;;;;;4914848;29;20131;-68
2024/02/01 00:36:19;;;;;;;70.50;28.00;;;;;;;;;;4914324;29;20035;-69
2024/02/01 00:38:45;;;;;;;48.47;22.08;;;;;;;;;;4914595;29;20043;-69
2024/02/01 00:41:11;;;;;;;58.50;24.77;;;;;;;;;;4897635;29;20119;-69
2024/02/01 00:43:39;;;;;;;35.40;16.08;;;;;;;;;;4913375;29;20091;-68
2024/02/01 00:46:04;;;;;;;68.88;26.17;;;;;;;;;;4915163;29;20032;-69
2024/02/01 00:48:31;;;;;;;62.83;24.17;;;;;;;;;;4921225;29;20055;-70
2024/02/01 00:50:56;;;;;;;57.00;25.08;;;;;;;;;;4919089;29;20119;-68
2024/02/01 00:53:23;;;;;;;56.55;25.40;;;;;;;;;;4915383;29;20072;-68
2024/02/01 00:55:49;;;;;;;55.72;24.88;;;;;;;;;;4912495;29;20032;-70
2024/02/01 00:58:15;;;;;;;59.25;23.38;;;;;;;;;;4914304;29;20065;-69
2024/02/01 01:00:41;;;;;;;67.53;25.15;;;;;;;;;;4913380;29;20498;-68
2024/02/01 01:03:07;;;;;;;51.78;23.73;;;;;;;;;;4913380;29;20138;-70
2024/02/01 01:05:33;;;;;;;59.40;24.67;;;;;;;;;;4914279;29;20036;-68
2024/02/01 01:07:59;;;;;;;61.25;24.80;;;;;;;;;;4913303;29;20044;-69
2024/02/01 01:10:24;;;;;;;54.85;24.60;;;;;;;;;;4897784;29;20175;-68
2024/02/01 01:12:50;;;;;;;49.22;19.10;;;;;;;;;;4912324;29;20414;-70
2024/02/01 01:15:17;;;;;;;47.97;22.58;;;;;;;;;;4912856;29;20135;-70
2024/02/01 01:17:42;;;;;;;54.90;24.60;;;;;;;;;;4912473;29;20044;-68
2024/02/01 01:20:09;;;;;;;53.58;23.42;;;;;;;;;;4912825;29;20044;-68
2024/02/01 01:22:35;;;;;;;73.80;27.15;;;;;;;;;;4913882;29;20047;-68
2024/02/01 01:25:01;;;;;;;56.80;23.27;;;;;;;;;;4913247;29;20047;-68
2024/02/01 01:27:29;;;;;;;53.95;22.63;;;;;;;;;;4912753;29;20071;-68
2024/02/01 01:29:55;;;;;;;61.30;25.23;;;;;;;;;;4912405;29;20494;-68
2024/02/01 01:32:21;;;;;;;44.08;22.20;;;;;;;;;;4911252;29;20039;-69
2024/02/01 01:34:47;;;;;;;59.42;25.63;;;;;;;;;;4910835;29;20127;-68
2024/02/01 01:37:12;;;;;;;64.63;25.70;;;;;;;;;;4912233;29;20518;-68
2024/02/01 01:39:38;;;;;;;63.00;25.63;;;;;;;;;;4912253;29;20510;-67
2024/02/01 01:42:04;;;;;;;59.85;24.42;;;;;;;;;;4910971;29;20036;-68
2024/02/01 01:44:30;;;;;;;57.05;22.80;;;;;;;;;;4912211;29;20119;-69
2024/02/01 01:46:56;;;;;;;55.03;23.08;;;;;;;;;;4912181;29;20044;-68
2024/02/01 01:49:22;;;;;;;49.15;20.83;;;;;;;;;;4912317;29;20032;-68
2024/02/01 01:51:48;;;;;;;73.45;27.52;;;;;;;;;;4911091;29;20491;-68
2024/02/01 01:54:13;;;;;;;54.53;23.40;;;;;;;;;;4912470;29;20520;-68
2024/02/01 01:56:40;;;;;;;51.85;22.75;;;;;;;;;;4911826;29;20044;-68
2024/02/01 01:59:06;;;;;;;62.55;23.33;;;;;;;;;;4895261;29;20578;-68
2024/02/01 02:01:32;;;;;;;60.90;25.35;;;;;;;;;;4912108;29;20102;-68
2024/02/01 02:03:58;;;;;;;66.18;25.30;;;;;;;;;;4910761;29;20557;-68
2024/02/01 02:06:24;;;;;;;57.10;23.55;;;;;;;;;;4912035;29;20040;-68
2024/02/01 02:08:50;;;;;;;65.57;26.13;;;;;;;;;;4911813;29;20535;-69
2024/02/01 02:11:16;;;;;;;69.57;24.75;;;;;;;;;;4910717;29;20036;-69
2024/02/01 02:13:48;;;;;;;66.78;26.05;;;;;;;;;;4912677;29;20517;-68
2024/02/01 02:16:14;;;;;;;56.20;23.20;;;;;;;;;;4924941;29;20137;-69
2024/02/01 02:18:40;;;;;;;59.28;24.95;;;;;;;;;;4918953;29;20057;-67
2024/02/01 02:21:05;;;;;;;65.60;27.02;;;;;;;;;;4916052;29;20163;-68
2024/02/01 02:23:31;;;;;;;65.22;25.67;;;;;;;;;;4923744;29;20082;-69
2024/02/01 02:25:57;;;;;;;67.72;27.17;;;;;;;;;;4933039;29;20437;-68
2024/02/01 02:28:23;;;;;;;63.20;25.83;;;;;;;;;;4917578;29;20040;-68
2024/02/01 02:30:52;;;;;;;53.85;23.73;;;;;;;;;;4934139;29;20102;-68
2024/02/01 02:33:17;;;;;;;61.80;25.58;;;;;;;;;;4934554;29;20158;-68
2024/02/01 02:35:44;;;;;;;53.97;22.55;;;;;;;;;;4934176;29;20110;-68
2024/02/01 02:38:10;;;;;;;53.90;23.90;;;;;;;;;;4934334;29;20529;-67
2024/02/01 02:40:35;;;;;;;41.67;18.80;;;;;;;;;;4934250;29;20027;-68
2024/02/01 02:43:02;;;;;;;63.72;28.27;;;;;;;;;;4934319;29;20039;-67
2024/02/01 02:45:27;;;;;;;45.55;21.65;;;;;;;;;;4933240;29;20474;-69
2024/02/01 02:47:53;;;;;;;53.25;25.27;;;;;;;;;;4933931;29;20170;-68
2024/02/01 02:50:19;;;;;;;46.70;22.58;;;;;;;;;;4933090;29;20032;-69
2024/02/01 02:52:45;;;;;;;43.13;20.25;;;;;;;;;;4919281;29;20048;-68
2024/02/01 02:55:11;;;;;;;37.25;19.05;;;;;;;;;;4915175;29;20130;-66
2024/02/01 02:57:37;;;;;;;33.60;18.60;;;;;;;;;;4914918;29;20048;-66
2024/02/01 03:00:03;;;;;;;42.20;20.55;;;;;;;;;;4915269;29;20036;-68
2024/02/01 03:02:35;;;;;;;55.03;25.65;;;;;;;;;;4914001;29;20044;-68
2024/02/01 03:05:01;;;;;;;41.15;20.85;;;;;;;;;;4914130;29;20415;-69
2024/02/01 03:07:29;;;;;;;48.20;25.40;;;;;;;;;;4915159;29;20032;-68
2024/02/01 03:09:55;;;;;;;34.47;16.95;;;;;;;;;;4914762;29;20388;-68
2024/02/01 03:12:21;;;;;;;32.83;17.08;;;;;;;;;;4915127;29;20126;-67
2024/02/01 03:14:49;;;;;;;22.23;12.27;;;;;;;;;;4914556;29;20044;-67
2024/02/01 03:17:18;;;;;;;40.97;21.08;;;;;;;;;;4914896;29;20040;-68
2024/02/01 03:19:48;;;;;;;50.90;24.00;;;;;;;;;;4929177;29;20419;-67
2024/02/01 03:22:19;;;;;;;38.17;20.00;;;;;;;;;;4922426;29;20032;-68
2024/02/01 03:24:45;;;;;;;36.63;20.30;;;;;;;;;;4947537;28;20439;-68
2024/02/01 03:27:12;;;;;;;19.88;13.48;;;;;;;;;;4932716;29;20131;-68
2024/02/01 03:29:37;;;;;;;50.22;23.15;;;;;;;;;;4933719;29;20095;-68
2024/02/01 03:32:06;;;;;;;45.20;23.80;;;;;;;;;;4933373;29;20079;-68
2024/02/01 03:34:32;;;;;;;42.72;22.73;;;;;;;;;;4933148;29;20031;-67
2024/02/01 03:37:01;;;;;;;21.08;14.73;;;;;;;;;;4933897;29;20513;-67
2024/02/01 03:39:29;;;;;;;39.75;19.65;;;;;;;;;;4936509;29;20035;-67
2024/02/01 03:41:55;;;;;;;29.02;16.08;;;;;;;;;;4936141;29;20045;-68
2024/02/01 03:44:21;;;;;;;44.72;22.63;;;;;;;;;;4934719;29;20130;-68
2024/02/01 03:46:47;;;;;;;41.55;20.35;;;;;;;;;;4933720;29;20043;-66
2024/02/01 03:49:14;;;;;;;41.45;23.23;;;;;;;;;;4933896;29;20046;-68
2024/02/01 03:51:40;;;;;;;38.10;21.13;;;;;;;;;;4933370;29;20502;-68
2024/02/01 03:54:06;;;;;;;42.53;21.15;;;;;;;;;;4930612;29;20092;-68
2024/02/01 03:56:32;;;;;;;35.85;18.00;;;;;;;;;;4926805;29;20123;-68
2024/02/01 03:59:01;;;;;;;38.55;20.85;;;;;;;;;;4913820;29;20040;-68
2024/02/01 04:01:27;;;;;;;35.90;20.08;;;;;;;;;;4913836;29;20047;-68
2024/02/01 04:03:54;;;;;;;42.15;21.77;;;;;;;;;;4913319;29;20051;-68
2024/02/01 04:06:24;;;;;;;24.45;13.82;;;;;;;;;;4913636;29;20498;-69
2024/02/01 04:08:50;;;;;;;39.78;19.98;;;;;;;;;;4913403;29;20423;-68
2024/02/01 04:11:16;;;;;;;40.63;21.30;;;;;;;;;;4913652;29;20043;-70
2024/02/01 04:13:42;;;;;;;37.88;20.00;;;;;;;;;;4917955;29;20058;-69
2024/02/01 04:16:08;;;;;;;47.50;23.45;;;;;;;;;;4929519;29;20055;-69
2024/02/01 04:18:34;;;;;;;42.97;21.52;;;;;;;;;;4923492;29;20044;-69
2024/02/01 04:21:00;;;;;;;47.70;22.05;;;;;;;;;;4921938;29;20492;-69
2024/02/01 04:23:26;;;;;;;40.15;21.80;;;;;;;;;;4923105;29;20047;-69
2024/02/01 04:25:52;;;;;;;44.17;22.02;;;;;;;;;;4932008;29;20043;-68
2024/02/01 04:28:18;;;;;;;28.40;15.93;;;;;;;;;;4931353;29;20040;-68
2024/02/01 04:30:50;;;;;;;37.65;20.30;;;;;;;;;;4948526;29;20043;-67
2024/02/01 04:33:19;;;;;;;45.00;20.42;;;;;;;;;;4934583;29;20506;-69
2024/02/01 04:35:45;;;;;;;27.92;14.07;;;;;;;;;;4933853;29;20036;-69
2024/02/01 04:38:11;;;;;;;39.60;19.90;;;;;;;;;;4934339;29;20106;-70
2024/02/01 04:40:37;;;;;;;29.20;13.50;;;;;;;;;;4941217;29;20040;-70
2024/02/01 04:43:02;;;;;;;54.03;23.20;;;;;;;;;;4912958;29;20047;-69
2024/02/01 04:45:29;;;;;;;29.63;14.85;;;;;;;;;;4913386;29;20044;-69
2024/02/01 04:47:55;;;;;;;29.88;16.67;;;;;;;;;;4912025;29;20107;-69
2024/02/01 04:50:21;;;;;;;42.10;15.93;;;;;;;;;;4913276;29;20052;-70
2024/02/01 04:52:47;;;;;;;46.50;21.08;;;;;;;;;;4913179;29;20155;-69
2024/02/01 04:55:13;;;;;;;50.75;21.67;;;;;;;;;;4912190;29;20131;-69
2024/02/01 04:57:39;;;;;;;29.80;14.73;;;;;;;;;;4898487;29;20043;-69
2024/02/01 05:00:13;;;;;;;40.75;20.05;;;;;;;;;;4930205;29;20071;-69
2024/02/01 05:03:02;;;;;;;40.00;21.02;;;;;;;;;;4920825;29;20043;-69
2024/02/01 05:06:09;;;;;;;40.70;19.00;;;;;;;;;;4894081;29;20525;-71
2024/02/01 05:08:35;;;;;;;43.80;20.42;;;;;;;;;;4886298;29;20050;-71
2024/02/01 05:11:01;;;;;;;43.42;21.05;;;;;;;;;;4906740;29;20107;-70
2024/02/01 05:13:30;;;;;;;35.75;18.48;;;;;;;;;;4909663;29;20780;-70
2024/02/01 05:15:57;;;;;;;21.75;12.75;;;;;;;;;;4885457;29;20060;-70
2024/02/01 05:18:23;;;;;;;40.13;19.73;;;;;;;;;;4908744;29;20035;-71
2024/02/01 05:20:50;;;;;;;22.50;13.50;;;;;;;;;;4900000;29;20539;-71
2024/02/01 05:23:16;;;;;;;38.40;20.92;;;;;;;;;;4891068;29;20040;-71
2024/02/01 05:25:42;;;;;;;17.40;12.35;;;;;;;;;;4892643;29;20048;-71
2024/02/01 05:28:10;;;;;;;28.13;17.45;;;;;;;;;;4906139;29;20064;-72
2024/02/01 05:30:36;;;;;;;31.98;17.70;;;;;;;;;;4908143;29;20471;-72
2024/02/01 05:33:02;;;;;;;29.75;17.17;;;;;;;;;;4905278;29;20099;-71
2024/02/01 05:35:29;;;;;;;37.05;19.45;;;;;;;;;;4897307;29;20117;-71
2024/02/01 05:37:56;;;;;;;44.17;22.30;;;;;;;;;;4933426;29;20044;-72
2024/02/01 05:40:22;;;;;;;55.78;26.15;;;;;;;;;;4930872;29;20036;-73
2024/02/01 05:42:48;;;;;;;35.00;19.00;;;;;;;;;;4933355;29;20071;-72
2024/02/01 05:45:14;;;;;;;35.65;17.52;;;;;;;;;;4932606;29;20055;-73
2024/02/01 05:47:40;;;;;;;17.88;12.10;;;;;;;;;;4935762;29;20065;-71
2024/02/01 05:50:06;;;;;;;58.05;22.73;;;;;;;;;;4957115;28;20468;-73
2024/02/01 05:52:36;;;;;;;50.17;22.30;;;;;;;;;;4922650;29;20058;-73
2024/02/01 05:55:05;;;;;;;56.45;22.98;;;;;;;;;;4935598;29;20179;-74
2024/02/01 05:57:34;;;;;;;41.38;20.25;;;;;;;;;;4939535;29;20130;-73
2024/02/01 06:00:00;;;;;;;44.03;19.52;;;;;;;;;;4955108;28;20032;-72
2024/02/01 06:02:27;;;;;;;55.90;22.40;;;;;;;;;;4955896;28;20042;-71
2024/02/01 06:04:53;;;;;;;54.83;22.98;;;;;;;;;;4956158;28;20062;-71
2024/02/01 06:07:19;;;;;;;45.90;22.13;;;;;;;;;;4945599;28;20040;-72
2024/02/01 06:09:45;;;;;;;30.58;15.80;;;;;;;;;;4918070;29;20043;-72
2024/02/01 06:12:10;;;;;;;40.35;20.75;;;;;;;;;;4917762;29;20044;-72
2024/02/01 06:14:36;;;;;;;41.78;19.92;;;;;;;;;;4935979;29;20042;-72
2024/02/01 06:17:02;;;;;;;41.47;18.35;;;;;;;;;;4936674;29;20110;-72
2024/02/01 06:19:28;;;;;;;41.00;20.33;;;;;;;;;;4934586;29;20045;-72
2024/02/01 06:21:54;;;;;;;13.07;10.55;;;;;;;;;;4937120;29;20039;-72
2024/02/01 06:24:20;;;;;;;18.52;13.73;;;;;;;;;;4937497;29;20506;-71
2024/02/01 06:26:46;;;;;;;35.45;16.63;;;;;;;;;;4937155;29;20589;-73
2024/02/01 06:29:12;;;;;;;29.83;15.35;;;;;;;;;;4938498;29;20059;-72
2024/02/01 06:31:38;;;;;;;21.63;15.48;;;;;;;;;;4917239;29;20036;-73
2024/02/01 06:34:04;;;;;;;20.70;14.40;;;;;;;;;;4936682;29;20054;-72
2024/02/01 06:36:35;;;;;;;25.50;14.35;;;;;;;;;;4936307;29;20042;-72
2024/02/01 06:41:28;;;;;;;16.23;12.27;;;;;;;;;;4937917;29;20043;-72
2024/02/01 06:49:29;;;;;;;46.25;20.73;;;;;;;;;;4937599;29;20036;-72
2024/02/01 06:52:02;;;;;;;13.73;9.57;;;;;;;;;;4951098;28;20043;-71
2024/02/01 06:54:39;;;;;;;29.23;16.52;;;;;;;;;;4936425;29;20051;-72
2024/02/01 06:57:18;;;;;;;42.75;21.98;;;;;;;;;;4934642;29;20047;-72
2024/02/01 07:00:06;;;;;;;48.15;21.02;;;;;;;;;;4934325;29;20533;-71
2024/02/01 07:02:35;;;;;;;31.35;15.20;;;;;;;;;;4928919;29;20043;-71
2024/02/01 07:05:21;;;;;;;42.95;20.80;;;;;;;;;;4924737;29;20056;-72
2024/02/01 07:07:50;;;;;;;25.98;14.45;;;;;;;;;;4924833;29;20056;-72
2024/02/01 07:10:17;;;;;;;23.55;15.27;;;;;;;;;;4924652;29;20066;-73
2024/02/01 07:13:06;;;;;;;31.92;14.80;;;;;;;;;;4928133;29;20067;-72
2024/02/01 07:15:33;;;;;;;36.13;17.70;;;;;;;;;;4925354;29;20101;-72
2024/02/01 07:18:02;;;;;;;31.67;16.02;;;;;;;;;;4922724;29;20059;-73
2024/02/01 07:20:46;;;;;;;34.20;16.75;;;;;;;;;;4925985;29;20087;-73
2024/02/01 07:25:48;;;;;;;24.85;13.60;;;;;;;;;;4931410;29;20086;-73
2024/02/01 07:58:29;;;;;;;52.80;22.20;;;;;;;;;;4944033;29;20028;-74
2024/02/01 08:01:01;;;;;;;29.20;13.93;;;;;;;;;;4912883;29;20422;-73
2024/02/01 08:08:38;;;;;;;52.15;21.50;;;;;;;;;;4932383;29;20036;-73
2024/02/01 08:11:04;;;;;;;42.88;17.45;;;;;;;;;;4915858;29;20052;-73
2024/02/01 08:13:30;;;;;;;50.78;21.17;;;;;;;;;;4927349;29;20036;-73
2024/02/01 08:15:56;;;;;;;30.17;13.65;;;;;;;;;;4913236;29;20063;-73
2024/02/01 08:18:23;;;;;;;30.45;14.82;;;;;;;;;;4916426;29;20047;-73
2024/02/01 08:20:48;;;;;;;51.85;21.90;;;;;;;;;;4932937;29;20036;-73
2024/02/01 08:23:18;;;;;;;61.35;23.33;;;;;;;;;;4914542;29;20039;-73
2024/02/01 08:25:50;;;;;;;42.50;19.40;;;;;;;;;;4932832;29;20043;-73
2024/02/01 08:28:17;;;;;;;42.95;16.80;;;;;;;;;;4931672;29;20039;-78
2024/02/01 08:30:46;;;;;;;55.35;22.30;;;;;;;;;;4932887;29;20036;-72
2024/02/01 08:33:19;;;;;;;53.33;21.55;;;;;;;;;;4931018;29;20036;-73
2024/02/01 08:35:45;;;;;;;66.53;26.75;;;;;;;;;;4931528;29;20120;-73
2024/02/01 08:38:15;;;;;;;67.22;24.60;;;;;;;;;;4932311;29;20402;-73
2024/02/01 08:40:41;;;;;;;29.00;15.15;;;;;;;;;;4915780;29;20402;-73
2024/02/01 08:43:11;;;;;;;40.85;18.60;;;;;;;;;;4931897;29;20046;-73
2024/02/01 08:45:38;;;;;;;64.03;23.20;;;;;;;;;;4932549;29;20043;-73
2024/02/01 08:48:04;;;;;;;52.53;21.05;;;;;;;;;;4930941;29;20036;-72
2024/02/01 08:50:31;;;;;;;44.58;20.58;;;;;;;;;;4932649;29;20037;-74
2024/02/01 08:52:57;;;;;;;38.85;19.42;;;;;;;;;;4932068;29;20128;-72
2024/02/01 08:55:23;;;;;;;41.45;17.90;;;;;;;;;;4932480;29;20115;-73
2024/02/01 08:57:48;;;;;;;62.70;21.50;;;;;;;;;;4915198;29;20043;-74
2024/02/01 09:00:31;;;;;;;63.42;24.85;;;;;;;;;;4932108;29;20042;-73
2024/02/01 09:03:05;;;;;;;44.50;19.85;;;;;;;;;;4930764;29;20079;-72
2024/02/01 09:05:34;;;;;;;34.15;16.38;;;;;;;;;;4932993;29;20047;-73
2024/02/01 09:08:02;;;;;;;57.13;23.70;;;;;;;;;;4932028;29;20035;-73
2024/02/01 09:10:28;;;;;;;31.58;14.30;;;;;;;;;;4932053;29;20039;-73
2024/02/01 09:12:54;;;;;;;59.10;24.23;;;;;;;;;;4931559;29;20035;-73
2024/02/01 09:15:20;;;;;;;56.50;23.58;;;;;;;;;;4940814;29;20753;-73
2024/02/01 09:17:46;;;;;;;47.00;22.23;;;;;;;;;;4933934;29;20039;-73
2024/02/01 09:20:19;;;;;;;43.75;19.40;;;;;;;;;;4915519;29;20126;-73
2024/02/01 09:22:48;;;;;;;36.67;17.60;;;;;;;;;;4932662;29;20720;-73
2024/02/01 09:25:15;;;;;;;42.83;19.10;;;;;;;;;;4950342;29;20067;-73
2024/02/01 09:27:44;;;;;;;39.00;17.20;;;;;;;;;;4941046;29;20119;-72
2024/02/01 09:30:11;;;;;;;30.50;15.15;;;;;;;;;;4931348;29;20451;-73
2024/02/01 09:32:38;;;;;;;39.83;16.13;;;;;;;;;;4933120;29;20031;-73
2024/02/01 09:35:04;;;;;;;24.00;13.13;;;;;;;;;;4932594;29;20056;-73
2024/02/01 09:37:31;;;;;;;32.45;16.67;;;;;;;;;;4931969;29;20040;-73
2024/02/01 09:40:00;;;;;;;35.05;15.43;;;;;;;;;;4930197;29;20036;-72
2024/02/01 09:42:26;;;;;;;37.38;18.15;;;;;;;;;;4931689;29;20063;-73
2024/02/01 09:44:56;;;;;;;47.63;19.08;;;;;;;;;;4914346;29;20043;-73
2024/02/01 09:47:23;;;;;;;23.98;13.50;;;;;;;;;;4935213;28;20059;-73
2024/02/01 09:49:49;;;;;;;23.70;11.60;;;;;;;;;;4933014;29;20078;-72
2024/02/01 09:52:15;;;;;;;16.35;10.95;;;;;;;;;;4931308;29;20790;-73
2024/02/01 09:54:46;;;;;;;39.35;16.85;;;;;;;;;;4914640;29;20130;-74
2024/02/01 09:57:16;;;;;;;40.58;16.50;;;;;;;;;;4930133;29;20133;-73
2024/02/01 09:59:43;;;;;;;33.63;14.82;;;;;;;;;;4931388;29;20075;-73
2024/02/01 10:02:12;;;;;;;47.88;20.08;;;;;;;;;;4929501;29;20044;-73
2024/02/01 10:04:40;;;;;;;40.60;17.70;;;;;;;;;;4930116;29;20135;-73
2024/02/01 10:07:08;;;;;;;24.83;13.00;;;;;;;;;;4931347;29;20039;-73
2024/02/01 10:09:33;;;;;;;25.50;16.52;;;;;;;;;;4915345;29;20392;-73
2024/02/01 10:11:59;;;;;;;38.25;19.00;;;;;;;;;;4932680;29;20047;-73
2024/02/01 10:14:38;;;;;;;49.70;21.05;;;;;;;;;;4934685;29;20039;-72
2024/02/01 10:17:07;;;;;;;48.72;21.10;;;;;;;;;;4937023;29;20055;-73
2024/02/01 10:19:34;;;;;;;12.07;9.65;;;;;;;;;;4938634;29;20212;-73
2024/02/01 10:22:08;;;;;;;41.40;16.65;;;;;;;;;;4940944;29;20043;-72
2024/02/01 10:24:45;;;;;;;18.13;10.85;;;;;;;;;;4940723;29;20040;-73
2024/02/01 10:27:12;;;;;;;42.03;19.23;;;;;;;;;;4938637;29;20410;-74
2024/02/01 10:29:41;;;;;;;34.35;18.02;;;;;;;;;;4932822;29;20047;-74
2024/02/01 10:32:14;;;;;;;29.63;15.45;;;;;;;;;;4929690;29;20066;-74
2024/02/01 10:34:50;;;;;;;13.07;11.57;;;;;;;;;;4932187;29;20043;-73
2024/02/01 10:37:19;;;;;;;36.45;15.45;;;;;;;;;;4888498;29;20046;-74
2024/02/01 10:39:57;;;;;;;32.10;15.90;;;;;;;;;;4933282;29;20035;-74
2024/02/01 10:42:23;;;;;;;34.55;15.68;;;;;;;;;;4933216;29;20047;-75
2024/02/01 10:44:49;;;;;;;31.95;16.85;;;;;;;;;;4932847;29;20050;-74
2024/02/01 10:47:17;;;;;;;34.42;18.23;;;;;;;;;;4934100;29;20044;-74
2024/02/01 10:49:55;;;;;;;23.67;14.30;;;;;;;;;;4933199;29;20043;-74
2024/02/01 10:52:21;;;;;;;14.25;9.57;;;;;;;;;;4902532;29;20483;-74
2024/02/01 10:54:49;;;;;;;24.77;14.02;;;;;;;;;;4886155;29;20130;-73
2024/02/01 10:57:16;;;;;;;32.08;16.70;;;;;;;;;;4934105;29;20071;-74
2024/02/01 10:59:43;;;;;;;24.67;14.10;;;;;;;;;;4933052;29;20136;-74
2024/02/01 11:02:09;;;;;;;35.85;17.20;;;;;;;;;;4934188;29;20123;-74
2024/02/01 11:04:35;;;;;;;24.55;13.45;;;;;;;;;;4937959;29;20055;-74
2024/02/01 11:07:01;;;;;;;27.67;15.05;;;;;;;;;;4922786;29;20035;-74
2024/02/01 11:09:28;;;;;;;27.58;15.10;;;;;;;;;;4934297;29;20048;-74
2024/02/01 11:11:55;;;;;;;21.17;13.57;;;;;;;;;;4933852;29;20027;-74
2024/02/01 11:14:21;;;;;;;11.52;7.45;;;;;;;;;;4932440;29;20130;-74
2024/02/01 11:16:51;;;;;;;27.13;15.00;;;;;;;;;;4916479;29;20051;-74
2024/02/01 11:19:17;;;;;;;28.60;15.85;;;;;;;;;;4932308;29;20051;-74
2024/02/01 11:21:48;;;;;;;30.52;16.02;;;;;;;;;;4933884;29;20046;-74
2024/02/01 11:24:17;;;;;;;15.02;11.00;;;;;;;;;;4932117;29;20058;-74
2024/02/01 11:26:44;;;;;;;27.15;14.73;;;;;;;;;;4933607;29;20031;-74
2024/02/01 11:29:11;;;;;;;23.70;15.23;;;;;;;;;;4933357;29;20044;-74
2024/02/01 11:31:37;;;;;;;16.48;11.73;;;;;;;;;;4932233;29;20571;-73
2024/02/01 11:34:06;;;;;;;23.05;14.23;;;;;;;;;;4932101;29;20032;-74
2024/02/01 11:36:32;;;;;;;12.48;9.80;;;;;;;;;;4900895;29;20042;-73
2024/02/01 11:38:59;;;;;;;22.00;12.73;;;;;;;;;;4933258;29;20487;-74
2024/02/01 11:41:26;;;;;;;21.88;12.13;;;;;;;;;;4933122;29;20039;-74
2024/02/01 11:43:52;;;;;;;20.50;12.95;;;;;;;;;;4916315;29;20043;-74
2024/02/01 11:46:18;;;;;;;23.85;14.88;;;;;;;;;;4915498;29;20455;-75
2024/02/01 11:48:44;;;;;;;17.33;12.13;;;;;;;;;;4932173;29;20481;-74
2024/02/01 11:51:10;;;;;;;16.70;9.93;;;;;;;;;;4932983;29;20043;-74
2024/02/01 11:53:36;;;;;;;20.50;13.02;;;;;;;;;;4933145;29;20094;-74
2024/02/01 11:56:05;;;;;;;22.13;12.80;;;;;;;;;;4933119;29;20036;-74
2024/02/01 11:58:31;;;;;;;14.23;11.38;;;;;;;;;;4933037;29;20594;-74
2024/02/01 12:00:57;;;;;;;16.25;12.30;;;;;;;;;;4931887;29;20047;-74
2024/02/01 12:03:29;;;;;;;12.85;9.05;;;;;;;;;;4932872;29;20522;-75
2024/02/01 12:05:55;;;;;;;13.75;9.70;;;;;;;;;;4933238;29;20066;-73
2024/02/01 12:08:21;;;;;;;17.73;11.98;;;;;;;;;;4915917;29;20269;-75
2024/02/01 12:10:49;;;;;;;10.05;8.00;;;;;;;;;;4916808;29;20392;-73
2024/02/01 12:13:16;;;;;;;16.75;10.38;;;;;;;;;;4933824;29;20067;-74
2024/02/01 12:15:42;;;;;;;18.80;12.23;;;;;;;;;;4927477;29;20063;-73
2024/02/01 12:18:10;;;;;;;22.35;14.20;;;;;;;;;;4945047;29;20042;-75
2024/02/01 12:20:36;;;;;;;15.23;11.23;;;;;;;;;;4933873;29;20577;-74
2024/02/01 12:23:02;;;;;;;19.30;11.32;;;;;;;;;;4931898;29;20039;-74
2024/02/01 12:25:30;;;;;;;15.52;11.20;;;;;;;;;;4932974;29;20235;-73
2024/02/01 12:27:59;;;;;;;12.48;9.48;;;;;;;;;;4932555;29;20067;-74
2024/02/01 12:30:27;;;;;;;18.98;11.13;;;;;;;;;;4931261;29;20047;-74
2024/02/01 12:32:53;;;;;;;15.45;10.15;;;;;;;;;;4931176;29;20472;-73
2024/02/01 12:35:19;;;;;;;39.28;16.20;;;;;;;;;;4932065;29;20031;-73
2024/02/01 12:37:45;;;;;;;11.90;9.43;;;;;;;;;;4932403;29;20036;-74
2024/02/01 12:40:12;;;;;;;11.57;9.77;;;;;;;;;;4930829;29;20040;-74
2024/02/01 12:42:40;;;;;;;14.05;12.23;;;;;;;;;;4932351;29;20063;-74
2024/02/01 12:45:07;;;;;;;15.88;11.82;;;;;;;;;;4914832;29;20477;-74
2024/02/01 12:47:41;;;;;;;11.18;8.75;;;;;;;;;;4932163;29;20054;-74
2024/02/01 12:50:07;;;;;;;13.23;10.27;;;;;;;;;;4932254;29;20032;-73
2024/02/01 12:52:33;;;;;;;19.27;11.57;;;;;;;;;;4932594;29;20102;-73
2024/02/01 12:55:00;;;;;;;12.35;9.23;;;;;;;;;;4934903;29;20032;-74
2024/02/01 12:57:26;;;;;;;13.77;10.48;;;;;;;;;;4935699;29;20131;-73
2024/02/01 12:59:53;;;;;;;20.73;11.13;;;;;;;;;;4932247;29;20451;-73
2024/02/01 13:02:19;;;;;;;14.77;10.52;;;;;;;;;;4930526;29;20103;-73
2024/02/01 13:04:46;;;;;;;23.67;12.95;;;;;;;;;;4931561;29;20438;-72
2024/02/01 13:07:12;;;;;;;19.63;11.18;;;;;;;;;;4930824;29;20574;-72
2024/02/01 13:09:41;;;;;;;17.27;12.65;;;;;;;;;;4931898;29;20430;-73
2024/02/01 13:12:21;;;;;;;21.17;12.18;;;;;;;;;;4931490;29;20031;-72
2024/02/01 13:14:57;;;;;;;13.05;9.13;;;;;;;;;;4931308;29;20118;-73
2024/02/01 13:17:24;;;;;;;16.05;11.23;;;;;;;;;;4931579;29;20127;-73
2024/02/01 13:19:51;;;;;;;23.40;12.75;;;;;;;;;;4931578;29;20071;-74
2024/02/01 13:22:16;;;;;;;18.58;10.63;;;;;;;;;;4931531;29;20035;-74
2024/02/01 13:24:45;;;;;;;8.32;7.45;;;;;;;;;;4931420;29;20396;-74
2024/02/01 13:27:11;;;;;;;19.38;10.85;;;;;;;;;;4931491;29;20586;-75
2024/02/01 13:29:37;;;;;;;13.95;10.07;;;;;;;;;;4929915;29;20071;-73
2024/02/01 13:32:08;;;;;;;19.23;11.85;;;;;;;;;;4931515;29;20078;-73
2024/02/01 13:34:38;;;;;;;16.20;11.13;;;;;;;;;;4931317;29;20031;-73
2024/02/01 13:37:05;;;;;;;15.40;9.30;;;;;;;;;;4931545;29;20091;-73
2024/02/01 13:39:33;;;;;;;19.20;12.77;;;;;;;;;;4931124;29;20051;-73
2024/02/01 13:42:02;;;;;;;14.23;9.73;;;;;;;;;;4914560;29;20039;-73
2024/02/01 13:44:28;;;;;;;27.73;14.93;;;;;;;;;;4930917;29;20114;-73
2024/02/01 13:46:55;;;;;;;13.70;9.30;;;;;;;;;;4930037;29;20047;-74
2024/02/01 13:49:20;;;;;;;16.90;10.35;;;;;;;;;;4931034;29;20091;-74
2024/02/01 13:51:46;;;;;;;20.25;12.80;;;;;;;;;;4931304;29;20094;-73
2024/02/01 13:54:16;;;;;;;25.83;15.35;;;;;;;;;;4930916;29;20043;-73
2024/02/01 13:56:42;;;;;;;25.65;15.57;;;;;;;;;;4931185;28;20040;-73
2024/02/01 13:59:08;;;;;;;32.95;16.95;;;;;;;;;;4929966;29;20105;-73
2024/02/01 14:01:34;;;;;;;25.30;14.43;;;;;;;;;;4931493;29;20164;-74
2024/02/01 14:04:00;;;;;;;17.55;11.25;;;;;;;;;;4931070;29;20043;-74
2024/02/01 14:06:26;;;;;;;31.35;19.52;;;;;;;;;;4931109;29;20066;-74
2024/02/01 14:08:52;;;;;;;26.27;16.50;;;;;;;;;;4932320;29;20413;-73
2024/02/01 14:11:19;;;;;;;19.30;12.52;;;;;;;;;;4933499;29;20135;-73
2024/02/01 14:13:47;;;;;;;34.35;19.05;;;;;;;;;;4933863;29;20168;-73
2024/02/01 14:16:12;;;;;;;23.55;12.57;;;;;;;;;;4934780;29;20040;-74
2024/02/01 14:18:38;;;;;;;30.13;18.67;;;;;;;;;;4934843;29;20090;-73
2024/02/01 14:21:06;;;;;;;22.83;15.25;;;;;;;;;;4933846;29;20122;-73
2024/02/01 14:23:32;;;;;;;27.08;14.30;;;;;;;;;;4934555;29;20078;-74
2024/02/01 14:25:58;;;;;;;32.53;16.98;;;;;;;;;;4933639;29;20042;-74
2024/02/01 14:28:25;;;;;;;21.75;12.63;;;;;;;;;;4934587;29;20115;-73
2024/02/01 14:30:51;;;;;;;16.15;10.88;;;;;;;;;;4933490;29;20450;-74
2024/02/01 14:33:18;;;;;;;23.30;13.80;;;;;;;;;;4934724;29;20728;-74
2024/02/01 14:35:44;;;;;;;29.92;17.85;;;;;;;;;;4935080;29;20047;-73
2024/02/01 14:38:10;;;;;;;21.67;13.80;;;;;;;;;;4934827;29;20046;-73
2024/02/01 14:40:36;;;;;;;28.08;15.18;;;;;;;;;;4933168;29;20036;-74
2024/02/01 14:43:02;;;;;;;21.35;13.20;;;;;;;;;;4933611;29;20418;-73
2024/02/01 14:45:27;;;;;;;21.67;13.30;;;;;;;;;;4935278;29;20479;-72
2024/02/01 14:47:53;;;;;;;21.35;12.35;;;;;;;;;;4941026;29;20040;-72
2024/02/01 14:50:21;;;;;;;25.30;16.27;;;;;;;;;;4932945;29;20036;-73
2024/02/01 14:52:47;;;;;;;18.58;10.07;;;;;;;;;;4933560;29;20036;-74
2024/02/01 14:55:13;;;;;;;22.77;13.65;;;;;;;;;;4934355;29;20050;-72
2024/02/01 14:57:39;;;;;;;20.80;12.70;;;;;;;;;;4934230;29;20067;-72
2024/02/01 15:00:08;;;;;;;17.25;11.88;;;;;;;;;;4934258;29;20032;-72
2024/02/01 15:02:34;;;;;;;21.45;14.30;;;;;;;;;;4917259;29;20043;-72
2024/02/01 15:05:00;;;;;;;24.88;14.25;;;;;;;;;;4935708;29;20043;-73
2024/02/01 15:07:26;;;;;;;13.20;10.07;;;;;;;;;;4939961;29;20039;-72